sensor_id;sensor_type;location;lat;lon;timestamp;P1;durP1;ratioP1;P2;durP2;ratioP2
56457;SDS011;42360;42.918;12.366;2024-03-17T00:01:36;6.82;;;5.35;;
56457;SDS011;42360;42.918;12.366;2024-03-17T00:04:02;7.00;;;6.00;;
56457;SDS011;42360;42.918;12.366;2024-03-17T00:06:28;9.45;;;6.53;;
56457;SDS011;42360;42.918;12.366;2024-03-17T00:08:54;9.43;;;6.07;;
56457;SDS011;42360;42.918;12.366;2024-03-17T00:11:20;8.52;;;6.75;;
56457;SDS011;42360;42.918;12.366;2024-03-17T00:13:46;8.50;;;6.65;;
56457;SDS011;42360;42.918;12.366;2024-03-17T00:16:12;10.25;;;7.45;;
56457;SDS011;42360;42.918;12.366;2024-03-17T00:18:38;8.38;;;7.47;;
56457;SDS011;42360;42.918;12.366;2024-03-17T00:21:04;9.18;;;6.15;;
56457;SDS011;42360;42.918;12.366;2024-03-17T00:23:30;10.40;;;6.78;;
56457;SDS011;42360;42.918;12.366;2024-03-17T00:25:55;8.80;;;7.07;;
56457;SDS011;42360;42.918;12.366;2024-03-17T00:28:20;10.40;;;7.53;;
56457;SDS011;42360;42.918;12.366;2024-03-17T00:30:46;10.68;;;7.45;;
56457;SDS011;42360;42.918;12.366;2024-03-17T00:33:11;12.20;;;7.30;;
56457;SDS011;42360;42.918;12.366;2024-03-17T00:35:37;11.32;;;7.70;;
56457;SDS011;42360;42.918;12.366;2024-03-17T00:38:02;12.63;;;8.23;;
56457;SDS011;42360;42.918;12.366;2024-03-17T00:40:35;11.20;;;8.23;;
56457;SDS011;42360;42.918;12.366;2024-03-17T00:43:03;11.27;;;8.30;;
56457;SDS011;42360;42.918;12.366;2024-03-17T00:45:29;10.95;;;8.32;;
56457;SDS011;42360;42.918;12.366;2024-03-17T00:47:54;10.32;;;7.65;;
56457;SDS011;42360;42.918;12.366;2024-03-17T00:50:20;12.07;;;7.90;;
56457;SDS011;42360;42.918;12.366;2024-03-17T00:52:45;11.60;;;8.25;;
56457;SDS011;42360;42.918;12.366;2024-03-17T00:55:11;12.10;;;7.72;;
56457;SDS011;42360;42.918;12.366;2024-03-17T00:57:36;10.90;;;7.40;;
56457;SDS011;42360;42.918;12.366;2024-03-17T01:00:03;10.38;;;7.30;;
56457;SDS011;42360;42.918;12.366;2024-03-17T01:02:29;7.53;;;6.03;;
56457;SDS011;42360;42.918;12.366;2024-03-17T01:04:55;9.85;;;7.07;;
56457;SDS011;42360;42.918;12.366;2024-03-17T01:07:20;9.95;;;6.53;;
56457;SDS011;42360;42.918;12.366;2024-03-17T01:09:49;9.63;;;6.60;;
56457;SDS011;42360;42.918;12.366;2024-03-17T01:12:14;7.95;;;5.93;;
56457;SDS011;42360;42.918;12.366;2024-03-17T01:14:40;8.65;;;6.75;;
56457;SDS011;42360;42.918;12.366;2024-03-17T01:17:05;11.40;;;7.20;;
56457;SDS011;42360;42.918;12.366;2024-03-17T01:19:31;11.73;;;7.32;;
56457;SDS011;42360;42.918;12.366;2024-03-17T01:21:57;8.60;;;7.22;;
56457;SDS011;42360;42.918;12.366;2024-03-17T01:24:22;10.27;;;7.30;;
56457;SDS011;42360;42.918;12.366;2024-03-17T01:26:49;8.13;;;6.38;;
56457;SDS011;42360;42.918;12.366;2024-03-17T01:29:15;9.48;;;6.72;;
56457;SDS011;42360;42.918;12.366;2024-03-17T01:31:40;8.77;;;6.22;;
56457;SDS011;42360;42.918;12.366;2024-03-17T01:34:06;9.50;;;6.57;;
56457;SDS011;42360;42.918;12.366;2024-03-17T01:36:31;9.25;;;6.35;;
56457;SDS011;42360;42.918;12.366;2024-03-17T01:38:57;8.82;;;6.53;;
56457;SDS011;42360;42.918;12.366;2024-03-17T01:41:22;9.15;;;6.75;;
56457;SDS011;42360;42.918;12.366;2024-03-17T01:43:48;7.63;;;6.28;;
56457;SDS011;42360;42.918;12.366;2024-03-17T01:46:16;8.48;;;6.50;;
56457;SDS011;42360;42.918;12.366;2024-03-17T01:48:42;8.95;;;5.97;;
56457;SDS011;42360;42.918;12.366;2024-03-17T01:51:08;8.93;;;6.32;;
56457;SDS011;42360;42.918;12.366;2024-03-17T01:53:36;8.77;;;6.82;;
56457;SDS011;42360;42.918;12.366;2024-03-17T01:56:02;8.45;;;6.68;;
56457;SDS011;42360;42.918;12.366;2024-03-17T01:58:29;9.63;;;6.25;;
56457;SDS011;42360;42.918;12.366;2024-03-17T02:00:55;8.88;;;6.20;;
56457;SDS011;42360;42.918;12.366;2024-03-17T02:03:21;9.25;;;6.70;;
56457;SDS011;42360;42.918;12.366;2024-03-17T02:05:46;9.10;;;6.68;;
56457;SDS011;42360;42.918;12.366;2024-03-17T02:08:12;9.43;;;7.00;;
56457;SDS011;42360;42.918;12.366;2024-03-17T02:10:38;9.35;;;6.80;;
56457;SDS011;42360;42.918;12.366;2024-03-17T02:13:04;9.55;;;6.75;;
56457;SDS011;42360;42.918;12.366;2024-03-17T02:15:30;11.20;;;6.88;;
56457;SDS011;42360;42.918;12.366;2024-03-17T02:17:56;12.38;;;7.68;;
56457;SDS011;42360;42.918;12.366;2024-03-17T02:20:22;14.30;;;8.80;;
56457;SDS011;42360;42.918;12.366;2024-03-17T02:23:07;10.88;;;7.68;;
56457;SDS011;42360;42.918;12.366;2024-03-17T02:25:33;12.80;;;7.88;;
56457;SDS011;42360;42.918;12.366;2024-03-17T02:27:58;12.20;;;7.57;;
56457;SDS011;42360;42.918;12.366;2024-03-17T02:30:24;11.57;;;7.05;;
56457;SDS011;42360;42.918;12.366;2024-03-17T02:32:53;9.80;;;7.50;;
56457;SDS011;42360;42.918;12.366;2024-03-17T02:35:18;11.73;;;7.18;;
56457;SDS011;42360;42.918;12.366;2024-03-17T02:37:44;9.05;;;7.00;;
56457;SDS011;42360;42.918;12.366;2024-03-17T02:40:09;12.40;;;7.68;;
56457;SDS011;42360;42.918;12.366;2024-03-17T02:42:35;10.73;;;6.50;;
56457;SDS011;42360;42.918;12.366;2024-03-17T02:45:03;9.90;;;6.30;;
56457;SDS011;42360;42.918;12.366;2024-03-17T02:47:29;9.90;;;6.65;;
56457;SDS011;42360;42.918;12.366;2024-03-17T02:49:55;11.07;;;6.63;;
56457;SDS011;42360;42.918;12.366;2024-03-17T02:52:20;9.18;;;6.40;;
56457;SDS011;42360;42.918;12.366;2024-03-17T02:54:46;14.68;;;7.65;;
56457;SDS011;42360;42.918;12.366;2024-03-17T02:57:11;12.73;;;7.68;;
56457;SDS011;42360;42.918;12.366;2024-03-17T02:59:37;11.18;;;7.88;;
56457;SDS011;42360;42.918;12.366;2024-03-17T03:02:02;11.85;;;7.72;;
56457;SDS011;42360;42.918;12.366;2024-03-17T03:04:28;16.35;;;7.93;;
56457;SDS011;42360;42.918;12.366;2024-03-17T03:06:54;13.80;;;7.20;;
56457;SDS011;42360;42.918;12.366;2024-03-17T03:09:19;9.65;;;6.60;;
56457;SDS011;42360;42.918;12.366;2024-03-17T03:11:56;8.90;;;6.10;;
56457;SDS011;42360;42.918;12.366;2024-03-17T03:14:21;8.88;;;5.25;;
56457;SDS011;42360;42.918;12.366;2024-03-17T03:16:46;13.98;;;5.88;;
56457;SDS011;42360;42.918;12.366;2024-03-17T03:19:12;13.45;;;7.35;;
56457;SDS011;42360;42.918;12.366;2024-03-17T03:21:37;14.93;;;7.45;;
56457;SDS011;42360;42.918;12.366;2024-03-17T03:24:03;10.88;;;6.43;;
56457;SDS011;42360;42.918;12.366;2024-03-17T03:26:28;11.68;;;6.88;;
56457;SDS011;42360;42.918;12.366;2024-03-17T03:28:54;15.13;;;6.75;;
56457;SDS011;42360;42.918;12.366;2024-03-17T03:31:20;16.58;;;8.00;;
56457;SDS011;42360;42.918;12.366;2024-03-17T03:33:47;13.05;;;7.45;;
56457;SDS011;42360;42.918;12.366;2024-03-17T03:36:13;9.52;;;6.00;;
56457;SDS011;42360;42.918;12.366;2024-03-17T03:38:39;14.90;;;8.60;;
56457;SDS011;42360;42.918;12.366;2024-03-17T03:43:34;17.50;;;8.98;;
56457;SDS011;42360;42.918;12.366;2024-03-17T03:46:00;22.83;;;8.10;;
56457;SDS011;42360;42.918;12.366;2024-03-17T03:48:26;18.77;;;8.43;;
56457;SDS011;42360;42.918;12.366;2024-03-17T03:50:51;20.70;;;9.30;;
56457;SDS011;42360;42.918;12.366;2024-03-17T03:53:17;11.68;;;8.27;;
56457;SDS011;42360;42.918;12.366;2024-03-17T03:55:42;20.58;;;9.48;;
56457;SDS011;42360;42.918;12.366;2024-03-17T03:58:08;29.88;;;9.43;;
56457;SDS011;42360;42.918;12.366;2024-03-17T04:00:33;16.98;;;9.32;;
56457;SDS011;42360;42.918;12.366;2024-03-17T04:02:59;17.48;;;8.95;;
56457;SDS011;42360;42.918;12.366;2024-03-17T04:05:27;14.05;;;9.20;;
56457;SDS011;42360;42.918;12.366;2024-03-17T04:07:53;10.55;;;6.97;;
56457;SDS011;42360;42.918;12.366;2024-03-17T04:10:18;9.82;;;6.55;;
56457;SDS011;42360;42.918;12.366;2024-03-17T04:12:45;11.65;;;6.88;;
56457;SDS011;42360;42.918;12.366;2024-03-17T04:15:11;9.65;;;5.95;;
56457;SDS011;42360;42.918;12.366;2024-03-17T04:17:37;8.93;;;5.40;;
56457;SDS011;42360;42.918;12.366;2024-03-17T04:20:03;10.32;;;5.68;;
56457;SDS011;42360;42.918;12.366;2024-03-17T04:22:32;7.60;;;4.45;;
56457;SDS011;42360;42.918;12.366;2024-03-17T04:24:58;9.10;;;5.55;;
56457;SDS011;42360;42.918;12.366;2024-03-17T04:27:24;9.48;;;5.05;;
56457;SDS011;42360;42.918;12.366;2024-03-17T04:29:51;8.88;;;5.78;;
56457;SDS011;42360;42.918;12.366;2024-03-17T04:32:17;12.00;;;7.10;;
56457;SDS011;42360;42.918;12.366;2024-03-17T04:34:43;12.43;;;7.13;;
56457;SDS011;42360;42.918;12.366;2024-03-17T04:37:08;13.77;;;8.50;;
56457;SDS011;42360;42.918;12.366;2024-03-17T04:39:38;13.48;;;8.90;;
56457;SDS011;42360;42.918;12.366;2024-03-17T04:42:04;13.80;;;9.20;;
56457;SDS011;42360;42.918;12.366;2024-03-17T04:44:31;17.83;;;8.95;;
56457;SDS011;42360;42.918;12.366;2024-03-17T04:46:56;14.13;;;8.75;;
56457;SDS011;42360;42.918;12.366;2024-03-17T04:49:22;15.32;;;9.18;;
56457;SDS011;42360;42.918;12.366;2024-03-17T04:51:47;15.60;;;9.15;;
56457;SDS011;42360;42.918;12.366;2024-03-17T04:54:13;14.48;;;9.52;;
56457;SDS011;42360;42.918;12.366;2024-03-17T04:56:38;12.90;;;8.82;;
56457;SDS011;42360;42.918;12.366;2024-03-17T04:59:04;11.82;;;9.10;;
56457;SDS011;42360;42.918;12.366;2024-03-17T05:01:30;15.15;;;9.13;;
56457;SDS011;42360;42.918;12.366;2024-03-17T05:04:00;15.45;;;8.75;;
56457;SDS011;42360;42.918;12.366;2024-03-17T05:06:28;12.90;;;7.75;;
56457;SDS011;42360;42.918;12.366;2024-03-17T05:08:53;11.80;;;7.70;;
56457;SDS011;42360;42.918;12.366;2024-03-17T05:11:19;11.10;;;7.45;;
56457;SDS011;42360;42.918;12.366;2024-03-17T05:13:45;11.45;;;6.70;;
56457;SDS011;42360;42.918;12.366;2024-03-17T05:16:10;12.90;;;7.65;;
56457;SDS011;42360;42.918;12.366;2024-03-17T05:18:36;13.55;;;6.30;;
56457;SDS011;42360;42.918;12.366;2024-03-17T05:21:05;10.40;;;6.05;;
56457;SDS011;42360;42.918;12.366;2024-03-17T05:23:31;10.00;;;7.43;;
56457;SDS011;42360;42.918;12.366;2024-03-17T05:26:00;7.53;;;6.20;;
56457;SDS011;42360;42.918;12.366;2024-03-17T05:28:27;9.05;;;6.68;;
56457;SDS011;42360;42.918;12.366;2024-03-17T05:30:54;9.15;;;6.32;;
56457;SDS011;42360;42.918;12.366;2024-03-17T05:33:20;11.80;;;6.13;;
56457;SDS011;42360;42.918;12.366;2024-03-17T05:35:53;8.82;;;6.25;;
56457;SDS011;42360;42.918;12.366;2024-03-17T05:38:21;11.20;;;6.63;;
56457;SDS011;42360;42.918;12.366;2024-03-17T05:41:00;13.20;;;6.90;;
56457;SDS011;42360;42.918;12.366;2024-03-17T05:43:27;16.10;;;8.15;;
56457;SDS011;42360;42.918;12.366;2024-03-17T05:45:54;11.10;;;6.80;;
56457;SDS011;42360;42.918;12.366;2024-03-17T05:48:22;10.43;;;6.70;;
56457;SDS011;42360;42.918;12.366;2024-03-17T05:50:47;11.30;;;7.75;;
56457;SDS011;42360;42.918;12.366;2024-03-17T05:53:13;9.93;;;7.40;;
56457;SDS011;42360;42.918;12.366;2024-03-17T05:55:38;10.95;;;7.22;;
56457;SDS011;42360;42.918;12.366;2024-03-17T05:58:06;9.70;;;7.22;;
56457;SDS011;42360;42.918;12.366;2024-03-17T06:00:34;10.45;;;6.90;;
56457;SDS011;42360;42.918;12.366;2024-03-17T06:03:03;11.38;;;7.03;;
56457;SDS011;42360;42.918;12.366;2024-03-17T06:05:34;9.90;;;7.05;;
56457;SDS011;42360;42.918;12.366;2024-03-17T06:08:03;9.70;;;6.53;;
56457;SDS011;42360;42.918;12.366;2024-03-17T06:10:33;10.75;;;7.10;;
56457;SDS011;42360;42.918;12.366;2024-03-17T06:12:59;10.25;;;7.03;;
56457;SDS011;42360;42.918;12.366;2024-03-17T06:15:25;10.52;;;7.72;;
56457;SDS011;42360;42.918;12.366;2024-03-17T06:17:51;10.30;;;7.38;;
56457;SDS011;42360;42.918;12.366;2024-03-17T06:20:18;12.68;;;8.20;;
56457;SDS011;42360;42.918;12.366;2024-03-17T06:22:44;12.60;;;6.90;;
56457;SDS011;42360;42.918;12.366;2024-03-17T06:25:11;11.57;;;7.47;;
56457;SDS011;42360;42.918;12.366;2024-03-17T06:27:36;10.52;;;7.28;;
56457;SDS011;42360;42.918;12.366;2024-03-17T06:30:02;10.07;;;7.60;;
56457;SDS011;42360;42.918;12.366;2024-03-17T06:32:31;10.93;;;7.70;;
56457;SDS011;42360;42.918;12.366;2024-03-17T06:35:03;11.85;;;8.10;;
56457;SDS011;42360;42.918;12.366;2024-03-17T06:37:28;12.23;;;7.93;;
56457;SDS011;42360;42.918;12.366;2024-03-17T06:39:54;12.65;;;7.72;;
56457;SDS011;42360;42.918;12.366;2024-03-17T06:42:20;12.48;;;7.88;;
56457;SDS011;42360;42.918;12.366;2024-03-17T06:44:45;11.52;;;7.40;;
56457;SDS011;42360;42.918;12.366;2024-03-17T06:47:11;11.48;;;8.02;;
56457;SDS011;42360;42.918;12.366;2024-03-17T06:49:36;12.02;;;7.95;;
56457;SDS011;42360;42.918;12.366;2024-03-17T06:52:02;27.33;;;20.83;;
56457;SDS011;42360;42.918;12.366;2024-03-17T06:54:27;65.75;;;42.72;;
56457;SDS011;42360;42.918;12.366;2024-03-17T06:56:53;37.65;;;27.00;;
56457;SDS011;42360;42.918;12.366;2024-03-17T06:59:18;22.75;;;16.27;;
56457;SDS011;42360;42.918;12.366;2024-03-17T07:01:45;19.20;;;10.50;;
56457;SDS011;42360;42.918;12.366;2024-03-17T07:04:11;19.83;;;13.88;;
56457;SDS011;42360;42.918;12.366;2024-03-17T07:06:37;34.65;;;17.55;;
56457;SDS011;42360;42.918;12.366;2024-03-17T07:09:03;20.65;;;13.93;;
56457;SDS011;42360;42.918;12.366;2024-03-17T07:11:28;25.80;;;14.85;;
56457;SDS011;42360;42.918;12.366;2024-03-17T07:13:54;16.80;;;14.07;;
56457;SDS011;42360;42.918;12.366;2024-03-17T07:16:19;16.38;;;10.77;;
56457;SDS011;42360;42.918;12.366;2024-03-17T07:18:46;15.30;;;10.35;;
56457;SDS011;42360;42.918;12.366;2024-03-17T07:21:12;14.30;;;9.75;;
56457;SDS011;42360;42.918;12.366;2024-03-17T07:23:38;17.48;;;14.02;;
56457;SDS011;42360;42.918;12.366;2024-03-17T07:26:04;13.95;;;10.38;;
56457;SDS011;42360;42.918;12.366;2024-03-17T07:28:30;15.52;;;10.32;;
56457;SDS011;42360;42.918;12.366;2024-03-17T07:30:56;15.80;;;10.50;;
56457;SDS011;42360;42.918;12.366;2024-03-17T07:33:23;16.75;;;10.23;;
56457;SDS011;42360;42.918;12.366;2024-03-17T07:35:55;16.67;;;10.23;;
56457;SDS011;42360;42.918;12.366;2024-03-17T07:38:24;17.77;;;11.25;;
56457;SDS011;42360;42.918;12.366;2024-03-17T07:43:30;13.50;;;8.25;;
56457;SDS011;42360;42.918;12.366;2024-03-17T07:45:58;13.13;;;8.45;;
56457;SDS011;42360;42.918;12.366;2024-03-17T07:48:28;16.45;;;11.05;;
56457;SDS011;42360;42.918;12.366;2024-03-17T07:50:58;14.20;;;10.05;;
56457;SDS011;42360;42.918;12.366;2024-03-17T07:53:31;14.43;;;9.65;;
56457;SDS011;42360;42.918;12.366;2024-03-17T07:56:04;15.63;;;8.77;;
56457;SDS011;42360;42.918;12.366;2024-03-17T07:58:37;16.35;;;10.48;;
56457;SDS011;42360;42.918;12.366;2024-03-17T08:01:07;16.00;;;11.15;;
56457;SDS011;42360;42.918;12.366;2024-03-17T08:03:35;15.60;;;10.45;;
56457;SDS011;42360;42.918;12.366;2024-03-17T08:06:02;18.33;;;11.35;;
56457;SDS011;42360;42.918;12.366;2024-03-17T08:08:28;19.75;;;15.77;;
56457;SDS011;42360;42.918;12.366;2024-03-17T08:10:54;18.15;;;10.90;;
56457;SDS011;42360;42.918;12.366;2024-03-17T08:13:20;17.55;;;10.63;;
56457;SDS011;42360;42.918;12.366;2024-03-17T08:15:59;15.82;;;8.95;;
56457;SDS011;42360;42.918;12.366;2024-03-17T08:18:25;17.13;;;9.55;;
56457;SDS011;42360;42.918;12.366;2024-03-17T08:20:52;17.00;;;9.85;;
56457;SDS011;42360;42.918;12.366;2024-03-17T08:23:19;14.60;;;8.38;;
56457;SDS011;42360;42.918;12.366;2024-03-17T08:26:06;19.27;;;15.10;;
56457;SDS011;42360;42.918;12.366;2024-03-17T08:28:31;17.15;;;9.57;;
56457;SDS011;42360;42.918;12.366;2024-03-17T08:31:00;16.73;;;8.88;;
56457;SDS011;42360;42.918;12.366;2024-03-17T08:33:26;19.20;;;8.05;;
56457;SDS011;42360;42.918;12.366;2024-03-17T08:36:02;15.25;;;8.13;;
56457;SDS011;42360;42.918;12.366;2024-03-17T08:38:29;17.60;;;8.52;;
56457;SDS011;42360;42.918;12.366;2024-03-17T08:40:56;18.08;;;8.40;;
56457;SDS011;42360;42.918;12.366;2024-03-17T08:43:22;15.05;;;7.85;;
56457;SDS011;42360;42.918;12.366;2024-03-17T08:45:55;13.73;;;7.25;;
56457;SDS011;42360;42.918;12.366;2024-03-17T08:48:23;10.80;;;6.28;;
56457;SDS011;42360;42.918;12.366;2024-03-17T08:50:55;12.38;;;6.63;;
56457;SDS011;42360;42.918;12.366;2024-03-17T08:53:21;13.65;;;7.57;;
56457;SDS011;42360;42.918;12.366;2024-03-17T08:55:46;15.18;;;7.78;;
56457;SDS011;42360;42.918;12.366;2024-03-17T08:58:12;12.95;;;7.30;;
56457;SDS011;42360;42.918;12.366;2024-03-17T09:00:38;11.82;;;7.13;;
56457;SDS011;42360;42.918;12.366;2024-03-17T09:03:03;13.50;;;8.63;;
56457;SDS011;42360;42.918;12.366;2024-03-17T09:05:29;14.43;;;7.90;;
56457;SDS011;42360;42.918;12.366;2024-03-17T09:07:57;12.98;;;7.70;;
56457;SDS011;42360;42.918;12.366;2024-03-17T09:10:22;14.88;;;8.50;;
56457;SDS011;42360;42.918;12.366;2024-03-17T09:12:49;12.50;;;7.30;;
56457;SDS011;42360;42.918;12.366;2024-03-17T09:15:14;13.20;;;7.20;;
56457;SDS011;42360;42.918;12.366;2024-03-17T09:17:40;15.02;;;8.45;;
56457;SDS011;42360;42.918;12.366;2024-03-17T09:20:06;14.80;;;7.82;;
56457;SDS011;42360;42.918;12.366;2024-03-17T09:22:36;13.95;;;7.63;;
56457;SDS011;42360;42.918;12.366;2024-03-17T09:25:05;17.52;;;8.40;;
56457;SDS011;42360;42.918;12.366;2024-03-17T09:27:32;18.33;;;9.57;;
56457;SDS011;42360;42.918;12.366;2024-03-17T09:29:59;16.33;;;9.30;;
56457;SDS011;42360;42.918;12.366;2024-03-17T09:32:25;16.52;;;8.82;;
56457;SDS011;42360;42.918;12.366;2024-03-17T09:34:50;14.80;;;8.93;;
56457;SDS011;42360;42.918;12.366;2024-03-17T09:37:16;15.00;;;8.70;;
56457;SDS011;42360;42.918;12.366;2024-03-17T09:39:41;18.13;;;9.32;;
56457;SDS011;42360;42.918;12.366;2024-03-17T09:42:13;14.95;;;8.27;;
56457;SDS011;42360;42.918;12.366;2024-03-17T09:44:43;17.40;;;10.70;;
56457;SDS011;42360;42.918;12.366;2024-03-17T09:47:11;14.82;;;9.52;;
56457;SDS011;42360;42.918;12.366;2024-03-17T09:49:46;18.98;;;10.90;;
56457;SDS011;42360;42.918;12.366;2024-03-17T09:52:15;14.07;;;8.88;;
56457;SDS011;42360;42.918;12.366;2024-03-17T09:54:45;11.73;;;7.63;;
56457;SDS011;42360;42.918;12.366;2024-03-17T09:57:14;13.98;;;8.48;;
56457;SDS011;42360;42.918;12.366;2024-03-17T09:59:42;17.77;;;9.15;;
56457;SDS011;42360;42.918;12.366;2024-03-17T10:02:11;14.43;;;8.88;;
56457;SDS011;42360;42.918;12.366;2024-03-17T10:04:41;11.68;;;8.30;;
56457;SDS011;42360;42.918;12.366;2024-03-17T10:07:07;14.85;;;8.10;;
56457;SDS011;42360;42.918;12.366;2024-03-17T10:09:32;14.68;;;8.50;;
56457;SDS011;42360;42.918;12.366;2024-03-17T10:11:58;14.13;;;8.75;;
56457;SDS011;42360;42.918;12.366;2024-03-17T10:14:23;14.20;;;8.68;;
56457;SDS011;42360;42.918;12.366;2024-03-17T10:16:48;14.25;;;9.35;;
56457;SDS011;42360;42.918;12.366;2024-03-17T10:19:22;15.50;;;10.02;;
56457;SDS011;42360;42.918;12.366;2024-03-17T10:21:49;14.73;;;9.73;;
56457;SDS011;42360;42.918;12.366;2024-03-17T10:24:19;15.15;;;9.52;;
56457;SDS011;42360;42.918;12.366;2024-03-17T10:29:22;10.45;;;7.47;;
56457;SDS011;42360;42.918;12.366;2024-03-17T10:31:50;15.07;;;8.75;;
56457;SDS011;42360;42.918;12.366;2024-03-17T10:34:19;15.82;;;9.20;;
56457;SDS011;42360;42.918;12.366;2024-03-17T10:36:48;14.52;;;8.55;;
56457;SDS011;42360;42.918;12.366;2024-03-17T10:39:32;14.23;;;8.43;;
56457;SDS011;42360;42.918;12.366;2024-03-17T10:42:02;13.50;;;7.80;;
56457;SDS011;42360;42.918;12.366;2024-03-17T10:44:32;15.57;;;9.38;;
56457;SDS011;42360;42.918;12.366;2024-03-17T10:47:02;13.57;;;8.75;;
56457;SDS011;42360;42.918;12.366;2024-03-17T10:49:32;12.88;;;7.78;;
56457;SDS011;42360;42.918;12.366;2024-03-17T10:51:59;11.68;;;7.35;;
56457;SDS011;42360;42.918;12.366;2024-03-17T10:54:27;11.88;;;8.07;;
56457;SDS011;42360;42.918;12.366;2024-03-17T10:59:40;15.00;;;8.00;;
56457;SDS011;42360;42.918;12.366;2024-03-17T11:02:23;10.18;;;7.05;;
56457;SDS011;42360;42.918;12.366;2024-03-17T11:04:53;12.32;;;7.15;;
56457;SDS011;42360;42.918;12.366;2024-03-17T11:07:20;15.00;;;10.63;;
56457;SDS011;42360;42.918;12.366;2024-03-17T11:09:47;16.27;;;11.10;;
56457;SDS011;42360;42.918;12.366;2024-03-17T11:15:34;12.55;;;8.35;;
56457;SDS011;42360;42.918;12.366;2024-03-17T11:20:33;21.42;;;13.68;;
56457;SDS011;42360;42.918;12.366;2024-03-17T11:23:00;11.98;;;9.23;;
56457;SDS011;42360;42.918;12.366;2024-03-17T11:27:54;23.55;;;17.85;;
56457;SDS011;42360;42.918;12.366;2024-03-17T11:30:41;17.42;;;11.98;;
56457;SDS011;42360;42.918;12.366;2024-03-17T11:38:58;15.35;;;10.75;;
56457;SDS011;42360;42.918;12.366;2024-03-17T11:46:57;15.57;;;10.60;;
56457;SDS011;42360;42.918;12.366;2024-03-17T11:51:54;17.20;;;12.40;;
56457;SDS011;42360;42.918;12.366;2024-03-17T11:54:24;14.85;;;9.30;;
56457;SDS011;42360;42.918;12.366;2024-03-17T11:56:52;13.93;;;10.57;;
56457;SDS011;42360;42.918;12.366;2024-03-17T11:59:19;13.23;;;9.50;;
56457;SDS011;42360;42.918;12.366;2024-03-17T12:01:45;12.82;;;9.80;;
56457;SDS011;42360;42.918;12.366;2024-03-17T12:04:15;12.23;;;8.98;;
56457;SDS011;42360;42.918;12.366;2024-03-17T12:06:45;13.23;;;9.75;;
56457;SDS011;42360;42.918;12.366;2024-03-17T12:09:19;14.80;;;9.77;;
56457;SDS011;42360;42.918;12.366;2024-03-17T12:11:58;13.52;;;9.57;;
56457;SDS011;42360;42.918;12.366;2024-03-17T12:14:23;13.98;;;9.43;;
56457;SDS011;42360;42.918;12.366;2024-03-17T12:19:26;12.80;;;8.95;;
56457;SDS011;42360;42.918;12.366;2024-03-17T12:21:53;15.18;;;10.63;;
56457;SDS011;42360;42.918;12.366;2024-03-17T12:24:23;11.88;;;9.05;;
56457;SDS011;42360;42.918;12.366;2024-03-17T12:26:51;12.65;;;10.73;;
56457;SDS011;42360;42.918;12.366;2024-03-17T12:29:35;13.48;;;9.25;;
56457;SDS011;42360;42.918;12.366;2024-03-17T12:32:02;13.35;;;9.80;;
56457;SDS011;42360;42.918;12.366;2024-03-17T12:34:29;13.40;;;9.27;;
56457;SDS011;42360;42.918;12.366;2024-03-17T12:36:55;13.48;;;8.60;;
56457;SDS011;42360;42.918;12.366;2024-03-17T12:39:22;17.17;;;10.90;;
56457;SDS011;42360;42.918;12.366;2024-03-17T12:42:05;11.88;;;8.93;;
56457;SDS011;42360;42.918;12.366;2024-03-17T12:44:34;11.05;;;8.73;;
56457;SDS011;42360;42.918;12.366;2024-03-17T12:47:02;16.23;;;11.43;;
56457;SDS011;42360;42.918;12.366;2024-03-17T12:49:29;11.73;;;10.00;;
56457;SDS011;42360;42.918;12.366;2024-03-17T12:51:56;10.88;;;8.00;;
56457;SDS011;42360;42.918;12.366;2024-03-17T12:54:22;8.25;;;6.07;;
56457;SDS011;42360;42.918;12.366;2024-03-17T12:56:49;12.00;;;9.13;;
56457;SDS011;42360;42.918;12.366;2024-03-17T12:59:38;8.82;;;6.57;;
56457;SDS011;42360;42.918;12.366;2024-03-17T13:02:27;8.88;;;6.22;;
56457;SDS011;42360;42.918;12.366;2024-03-17T13:05:17;8.05;;;5.38;;
56457;SDS011;42360;42.918;12.366;2024-03-17T13:07:43;7.28;;;5.88;;
56457;SDS011;42360;42.918;12.366;2024-03-17T13:10:11;5.65;;;5.00;;
56457;SDS011;42360;42.918;12.366;2024-03-17T13:12:44;6.45;;;5.65;;
56457;SDS011;42360;42.918;12.366;2024-03-17T13:15:14;7.32;;;5.60;;
56457;SDS011;42360;42.918;12.366;2024-03-17T13:17:42;4.55;;;2.90;;
56457;SDS011;42360;42.918;12.366;2024-03-17T13:20:09;7.97;;;5.95;;
56457;SDS011;42360;42.918;12.366;2024-03-17T13:22:38;5.38;;;4.30;;
56457;SDS011;42360;42.918;12.366;2024-03-17T13:25:05;4.65;;;3.85;;
56457;SDS011;42360;42.918;12.366;2024-03-17T13:27:33;4.97;;;3.83;;
56457;SDS011;42360;42.918;12.366;2024-03-17T13:29:59;6.90;;;5.05;;
56457;SDS011;42360;42.918;12.366;2024-03-17T13:32:25;6.93;;;4.80;;
56457;SDS011;42360;42.918;12.366;2024-03-17T13:34:51;14.98;;;8.80;;
56457;SDS011;42360;42.918;12.366;2024-03-17T13:37:17;4.70;;;3.50;;
56457;SDS011;42360;42.918;12.366;2024-03-17T13:39:42;5.90;;;4.20;;
56457;SDS011;42360;42.918;12.366;2024-03-17T13:42:08;5.95;;;4.25;;
56457;SDS011;42360;42.918;12.366;2024-03-17T13:44:33;6.03;;;4.35;;
56457;SDS011;42360;42.918;12.366;2024-03-17T13:46:59;5.38;;;3.67;;
56457;SDS011;42360;42.918;12.366;2024-03-17T13:49:26;7.50;;;4.70;;
56457;SDS011;42360;42.918;12.366;2024-03-17T13:51:53;5.32;;;3.75;;
56457;SDS011;42360;42.918;12.366;2024-03-17T13:54:19;4.57;;;4.10;;
56457;SDS011;42360;42.918;12.366;2024-03-17T13:56:49;5.35;;;4.07;;
56457;SDS011;42360;42.918;12.366;2024-03-17T13:59:15;8.77;;;5.88;;
56457;SDS011;42360;42.918;12.366;2024-03-17T14:01:44;5.80;;;3.55;;
56457;SDS011;42360;42.918;12.366;2024-03-17T14:04:18;5.40;;;4.00;;
56457;SDS011;42360;42.918;12.366;2024-03-17T14:06:46;7.90;;;5.13;;
56457;SDS011;42360;42.918;12.366;2024-03-17T14:09:15;4.75;;;3.78;;
56457;SDS011;42360;42.918;12.366;2024-03-17T14:11:44;6.50;;;3.85;;
56457;SDS011;42360;42.918;12.366;2024-03-17T14:14:11;6.60;;;4.47;;
56457;SDS011;42360;42.918;12.366;2024-03-17T14:16:37;5.18;;;4.13;;
56457;SDS011;42360;42.918;12.366;2024-03-17T14:19:02;8.15;;;4.43;;
56457;SDS011;42360;42.918;12.366;2024-03-17T14:21:28;4.88;;;3.90;;
56457;SDS011;42360;42.918;12.366;2024-03-17T14:23:54;3.85;;;3.42;;
56457;SDS011;42360;42.918;12.366;2024-03-17T14:26:20;4.97;;;3.55;;
56457;SDS011;42360;42.918;12.366;2024-03-17T14:28:46;4.88;;;3.92;;
56457;SDS011;42360;42.918;12.366;2024-03-17T14:31:12;4.50;;;3.03;;
56457;SDS011;42360;42.918;12.366;2024-03-17T14:33:37;5.20;;;4.57;;
56457;SDS011;42360;42.918;12.366;2024-03-17T14:36:03;7.13;;;3.80;;
56457;SDS011;42360;42.918;12.366;2024-03-17T14:38:28;5.00;;;3.95;;
56457;SDS011;42360;42.918;12.366;2024-03-17T14:40:54;6.00;;;4.40;;
56457;SDS011;42360;42.918;12.366;2024-03-17T14:43:20;6.53;;;3.97;;
56457;SDS011;42360;42.918;12.366;2024-03-17T14:45:46;5.18;;;3.70;;
56457;SDS011;42360;42.918;12.366;2024-03-17T14:48:12;13.88;;;8.82;;
56457;SDS011;42360;42.918;12.366;2024-03-17T14:50:40;9.35;;;5.80;;
56457;SDS011;42360;42.918;12.366;2024-03-17T14:53:06;7.18;;;5.30;;
56457;SDS011;42360;42.918;12.366;2024-03-17T14:55:32;7.30;;;4.57;;
56457;SDS011;42360;42.918;12.366;2024-03-17T14:57:57;5.53;;;5.07;;
56457;SDS011;42360;42.918;12.366;2024-03-17T15:00:23;4.65;;;3.88;;